Time;durP1;ratioP1;P1;durP2;ratioP2;P2;SDS_P1;SDS_P2;PMS_P1;PMS_P2;Temp;Humidity;BMP_temperature;BMP_pressure;BME280_temperature;BME280_humidity;BME280_pressure;Samples;Min_cycle;Max_cycle;Signal;HPM_P1;HPM_P2
2023/10/11 00:00:34;;;;;;;;;17.25;11.50;;;;;19.89;60.12;101415.75;6340655;22;45338;-70
2023/10/11 00:03:05;;;;;;;;;18.50;16.50;;;;;19.87;60.08;101415.81;6340168;22;46296;-71
2023/10/11 00:05:41;;;;;;;;;13.50;11.25;;;;;19.84;60.21;101420.56;6340217;22;45379;-70
2023/10/11 00:08:08;;;;;;;;;13.75;12.50;;;;;19.78;60.19;101419.13;6340900;22;45305;-70
2023/10/11 00:10:44;;;;;;;;;15.75;13.75;;;;;19.70;60.07;101411.41;6339636;22;45259;-71
2023/10/11 00:13:11;;;;;;;;;15.75;15.75;;;;;19.75;60.41;101428.28;6340140;22;45243;-71
2023/10/11 00:15:36;;;;;;;;;18.25;12.25;;;;;19.74;60.13;101428.34;6339971;22;45537;-70
2023/10/11 00:18:02;;;;;;;;;13.00;13.00;;;;;19.72;60.30;101436.56;6340828;22;45256;-71
2023/10/11 00:23:05;;;;;;;;;11.75;11.75;;;;;19.67;60.30;101430.53;6340294;22;45894;-71
2023/10/11 00:25:30;;;;;;;;;13.75;13.75;;;;;19.67;60.60;101437.81;6339809;22;45302;-71
2023/10/11 00:27:59;;;;;;;;;12.50;11.75;;;;;19.66;60.36;101431.50;6341018;22;45338;-71
2023/10/11 00:30:25;;;;;;;;;15.75;14.75;;;;;19.59;60.18;101427.41;6339753;22;45271;-71
2023/10/11 00:32:52;;;;;;;;;14.50;13.25;;;;;19.61;60.45;101431.78;6340367;22;45196;-71
2023/10/11 00:35:18;;;;;;;;;17.75;11.00;;;;;19.59;60.09;101440.97;6339946;22;45762;-70
2023/10/11 00:37:49;;;;;;;;;12.25;9.75;;;;;19.57;60.46;101437.47;6312561;22;45326;-70
2023/10/11 00:40:25;;;;;;;;;16.50;15.25;;;;;19.58;60.57;101436.53;6339898;22;45440;-71
2023/10/11 00:42:51;;;;;;;;;17.75;15.00;;;;;19.54;60.58;101430.38;6340168;22;46020;-71
2023/10/11 00:45:17;;;;;;;;;12.75;11.25;;;;;19.56;60.61;101435.72;6339952;22;45291;-71
2023/10/11 00:47:45;;;;;;;;;14.50;12.25;;;;;19.53;60.64;101434.06;6340189;22;45355;-71
2023/10/11 00:50:14;;;;;;;;;15.50;13.50;;;;;19.46;60.67;101429.97;6340108;22;45471;-71
2023/10/11 00:52:43;;;;;;;;;12.50;11.25;;;;;19.52;60.87;101435.03;6339535;22;45339;-71
2023/10/11 00:55:45;;;;;;;;;12.50;12.50;;;;;19.47;60.95;101430.88;6339917;22;45276;-71
2023/10/11 00:58:03;;;;;;;;;16.00;14.50;;;;;19.42;60.87;101420.28;6334365;22;45338;-71
2023/10/11 01:00:35;;;;;;;;;14.75;12.75;;;;;19.43;60.71;101411.22;6340026;22;45314;-71
2023/10/11 01:03:01;;;;;;;;;12.25;10.00;;;;;19.32;60.82;101392.03;6339649;22;47291;-71
2023/10/11 01:05:26;;;;;;;;;11.50;11.00;;;;;19.41;61.19;101407.72;6339646;22;45645;-71
2023/10/11 01:07:54;;;;;;;;;12.25;12.25;;;;;19.38;60.83;101407.91;6339969;22;45424;-71
2023/10/11 01:10:23;;;;;;;;;16.75;13.00;;;;;19.34;61.02;101398.22;6339312;22;45643;-71
2023/10/11 01:12:49;;;;;;;;;12.25;11.25;;;;;19.35;61.19;101397.25;6339798;22;46148;-71
2023/10/11 01:15:19;;;;;;;;;14.00;12.50;;;;;19.34;61.09;101401.78;6339889;22;45541;-70
2023/10/11 01:17:45;;;;;;;;;14.50;13.00;;;;;19.32;61.44;101408.28;6340183;22;45268;-70
2023/10/11 01:20:13;;;;;;;;;15.00;13.00;;;;;19.30;61.23;101412.91;6339798;22;45377;-70
2023/10/11 01:22:42;;;;;;;;;11.75;11.00;;;;;19.24;61.36;101393.34;6339062;22;46128;-70
2023/10/11 01:25:08;;;;;;;;;13.50;12.00;;;;;19.26;61.54;101398.66;6339619;22;45315;-70
2023/10/11 01:27:36;;;;;;;;;10.75;10.75;;;;;19.19;61.67;101386.44;6340203;22;45512;-70
2023/10/11 01:30:09;;;;;;;;;11.75;11.50;;;;;19.13;61.35;101373.28;6339612;22;45452;-70
2023/10/11 01:32:37;;;;;;;;;15.25;11.00;;;;;19.19;61.41;101383.75;6314192;22;45338;-70
2023/10/11 01:35:06;;;;;;;;;15.50;13.75;;;;;19.20;61.83;101377.38;6338856;22;45221;-70
2023/10/11 01:37:41;;;;;;;;;16.50;13.50;;;;;19.18;61.76;101380.19;6312063;22;45464;-71
2023/10/11 01:40:08;;;;;;;;;13.00;10.00;;;;;19.13;61.62;101373.28;6339112;22;45437;-71
2023/10/11 01:42:34;;;;;;;;;12.00;12.00;;;;;19.12;61.18;101371.53;6339257;22;45971;-71
2023/10/11 01:45:00;;;;;;;;;13.50;12.75;;;;;19.12;61.88;101369.69;6339841;22;45354;-71
2023/10/11 01:47:26;;;;;;;;;16.25;13.00;;;;;19.07;61.94;101367.25;6341554;22;45321;-71
2023/10/11 01:49:53;;;;;;;;;14.25;12.00;;;;;19.05;61.46;101360.22;6341443;22;45527;-70
2023/10/11 01:52:18;;;;;;;;;12.00;11.00;;;;;19.05;61.80;101358.38;6340267;22;46303;-70
2023/10/11 01:54:43;;;;;;;;;13.50;12.75;;;;;19.04;61.72;101359.34;6337974;22;45196;-70
2023/10/11 01:57:10;;;;;;;;;12.75;11.00;;;;;18.97;61.72;101344.41;6339878;22;60181;-70
2023/10/11 01:59:35;;;;;;;;;11.75;11.00;;;;;19.04;61.50;101353.94;6340258;22;45427;-70
2023/10/11 02:02:03;;;;;;;;;10.75;10.75;;;;;19.01;61.53;101350.50;6341019;22;45822;-70
2023/10/11 02:04:29;;;;;;;;;15.25;13.25;;;;;19.01;61.82;101354.09;6340008;22;45893;-71
2023/10/11 02:06:54;;;;;;;;;15.50;13.00;;;;;18.99;61.34;101344.31;6313799;22;45383;-71
2023/10/11 02:09:21;;;;;;;;;13.50;10.75;;;;;18.97;61.53;101354.38;6341361;22;45415;-71
2023/10/11 02:11:51;;;;;;;;;12.25;10.75;;;;;18.99;62.09;101350.59;6341045;22;45420;-71
2023/10/11 02:14:18;;;;;;;;;13.75;13.50;;;;;18.96;61.96;101350.81;6340096;22;45339;-71
2023/10/11 02:16:43;;;;;;;;;20.25;13.00;;;;;18.92;61.97;101340.25;6340553;22;45533;-71
2023/10/11 02:19:09;;;;;;;;;16.25;14.25;;;;;18.94;61.97;101341.00;6340682;22;55388;-71
2023/10/11 02:21:36;;;;;;;;;13.50;11.50;;;;;18.92;61.81;101337.53;6340461;22;45993;-71
2023/10/11 02:24:04;;;;;;;;;15.75;14.50;;;;;18.88;61.80;101339.53;6339124;22;45482;-71
2023/10/11 02:26:34;;;;;;;;;10.50;10.50;;;;;18.87;62.10;101337.78;6340546;22;45521;-71
2023/10/11 02:29:00;;;;;;;;;14.00;12.00;;;;;18.80;61.85;101328.25;6340186;22;45463;-71
2023/10/11 02:31:27;;;;;;;;;11.25;10.00;;;;;18.82;61.95;101332.59;6340685;22;46026;-70
2023/10/11 02:34:07;;;;;;;;;13.75;11.25;;;;;18.74;62.17;101325.91;6339850;22;45261;-71
2023/10/11 02:36:35;;;;;;;;;14.75;9.50;;;;;18.72;61.87;101331.41;6340688;22;45337;-71
2023/10/11 02:39:05;;;;;;;;;14.00;11.50;;;;;18.69;62.26;101328.84;6340760;22;45404;-71
2023/10/11 02:41:31;;;;;;;;;14.25;10.75;;;;;18.70;62.04;101331.47;6339977;22;46993;-70
2023/10/11 02:43:57;;;;;;;;;12.25;11.75;;;;;18.69;62.27;101329.75;6340416;22;45491;-71
2023/10/11 02:46:24;;;;;;;;;11.75;10.75;;;;;18.71;62.27;101335.09;6340850;22;45263;-71
2023/10/11 02:49:11;;;;;;;;;15.00;11.00;;;;;18.68;62.09;101335.25;6341169;22;45289;-71
2023/10/11 02:51:37;;;;;;;;;13.50;12.25;;;;;18.55;61.98;101313.44;6340481;22;45265;-71
2023/10/11 02:54:04;;;;;;;;;11.00;10.75;;;;;18.63;61.73;101331.94;6339143;22;45324;-71
2023/10/11 02:56:46;;;;;;;;;13.25;12.50;;;;;18.57;61.78;101329.56;6340238;22;45542;-71
2023/10/11 02:59:22;;;;;;;;;15.00;13.75;;;;;18.62;61.71;101343.69;6340173;22;45396;-71
2023/10/11 03:01:59;;;;;;;;;13.25;13.25;;;;;18.62;62.38;101352.69;6340257;22;46805;-71
2023/10/11 03:04:28;;;;;;;;;12.50;11.50;;;;;18.62;62.26;101352.69;6340141;22;45249;-71
2023/10/11 03:06:53;;;;;;;;;12.75;12.75;;;;;18.58;61.98;101347.56;6340617;22;45288;-71
2023/10/11 03:09:18;;;;;;;;;11.00;11.00;;;;;18.60;62.05;101353.75;6340807;22;45310;-71
2023/10/11 03:11:45;;;;;;;;;12.00;10.75;;;;;18.59;62.37;101354.69;6338795;22;46999;-71
2023/10/11 03:14:13;;;;;;;;;13.25;11.50;;;;;18.56;61.95;101344.94;6339975;22;45267;-71
2023/10/11 03:16:42;;;;;;;;;11.25;11.00;;;;;18.57;62.11;101348.50;6340746;22;45276;-71
2023/10/11 03:19:10;;;;;;;;;14.00;11.25;;;;;18.55;62.36;101345.88;6340679;22;45310;-71
2023/10/11 03:21:35;;;;;;;;;11.00;10.75;;;;;18.52;62.25;101346.03;6338552;22;46336;-71
2023/10/11 03:24:05;;;;;;;;;15.50;14.25;;;;;18.52;62.24;101336.09;6340234;22;45329;-71
2023/10/11 03:28:58;;;;;;;;;12.50;11.00;;;;;18.48;62.11;101329.13;6337203;22;45255;-70
2023/10/11 03:31:27;;;;;;;;;10.00;9.00;;;;;18.47;61.87;101330.06;6340644;22;45412;-70
2023/10/11 03:33:55;;;;;;;;;11.75;11.75;;;;;18.47;62.24;101334.63;6340142;22;45548;-71
2023/10/11 03:36:27;;;;;;;;;13.00;10.50;;;;;18.41;62.19;101327.75;6340706;22;45240;-71
2023/10/11 03:38:52;;;;;;;;;15.00;12.00;;;;;18.40;61.60;101325.97;6339732;22;45571;-71
2023/10/11 03:41:25;;;;;;;;;11.75;10.25;;;;;18.41;61.70;101337.66;6339409;22;54960;-71
2023/10/11 03:43:54;;;;;;;;;13.75;10.75;;;;;18.43;61.86;101342.03;6340419;22;45526;-71
2023/10/11 03:46:24;;;;;;;;;18.50;12.25;;;;;18.40;61.93;101339.50;6340399;22;45217;-71
2023/10/11 03:48:56;;;;;;;;;10.50;10.50;;;;;18.38;61.63;101327.91;6340219;22;45299;-71
2023/10/11 03:51:22;;;;;;;;;12.25;9.50;;;;;18.39;62.16;101324.22;6339822;22;46221;-71
2023/10/11 03:53:48;;;;;;;;;16.00;13.50;;;;;18.36;61.98;101323.53;6340263;22;45254;-71
2023/10/11 03:56:15;;;;;;;;;15.50;14.00;;;;;18.32;62.03;101317.44;6339853;22;45711;-71
2023/10/11 03:58:40;;;;;;;;;10.25;10.25;;;;;18.31;61.85;101316.56;6340611;22;45479;-71
2023/10/11 04:01:24;;;;;;;;;16.00;13.25;;;;;18.30;61.95;101317.50;6340536;22;45361;-71
2023/10/11 04:03:50;;;;;;;;;13.00;11.75;;;;;18.25;61.91;101307.94;6339964;22;45265;-71
2023/10/11 04:06:16;;;;;;;;;16.00;14.00;;;;;18.27;61.82;101304.16;6340293;22;45287;-71
2023/10/11 04:08:54;;;;;;;;;13.50;11.50;;;;;18.24;62.28;101303.47;6340338;22;45372;-71
2023/10/11 04:11:30;;;;;;;;;10.00;10.00;;;;;18.26;62.09;101307.84;6339064;22;46351;-71
2023/10/11 04:13:56;;;;;;;;;11.00;10.00;;;;;18.25;62.29;101306.09;6339642;22;45198;-71
2023/10/11 04:16:23;;;;;;;;;13.75;13.75;;;;;18.25;62.49;101302.53;6340566;22;45669;-71
2023/10/11 04:18:52;;;;;;;;;10.25;9.00;;;;;18.22;62.04;101308.09;6340203;22;45454;-71
2023/10/11 04:21:38;;;;;;;;;10.75;10.00;;;;;18.15;61.96;101288.66;6340033;22;47172;-71
2023/10/11 04:24:06;;;;;;;;;13.25;12.50;;;;;18.19;62.05;101300.16;6338404;22;45357;-71
2023/10/11 04:29:06;;;;;;;;;14.00;13.00;;;;;18.12;62.66;101319.41;6336539;22;45345;-71
2023/10/11 04:31:36;;;;;;;;;16.25;15.00;;;;;18.09;62.46;101322.28;6339290;22;46812;-71
2023/10/11 04:34:02;;;;;;;;;11.00;11.00;;;;;18.05;62.57;101312.59;6339643;22;45446;-71
2023/10/11 04:36:28;;;;;;;;;12.25;10.00;;;;;18.06;62.91;101311.66;6340334;22;45394;-71
2023/10/11 04:39:03;;;;;;;;;15.50;11.00;;;;;17.98;62.84;101304.94;6339779;22;45310;-71
2023/10/11 04:41:37;;;;;;;;;11.50;11.00;;;;;17.99;62.92;101310.22;6339417;22;46244;-71
2023/10/11 04:44:12;;;;;;;;;11.25;11.25;;;;;18.02;62.37;101315.47;6339304;22;45437;-71
2023/10/11 04:46:38;;;;;;;;;13.50;12.75;;;;;17.97;62.58;101317.53;6339649;22;45176;-71
2023/10/11 04:49:18;;;;;;;;;13.50;13.50;;;;;17.99;62.54;101315.63;6339981;22;46491;-71
2023/10/11 04:51:45;;;;;;;;;10.50;8.75;;;;;17.96;62.79;101302.31;6339420;22;46351;-71
2023/10/11 04:54:15;;;;;;;;;13.75;12.00;;;;;17.86;62.49;101298.31;6338520;22;45263;-71
2023/10/11 05:04:33;;;;;;;;;11.25;11.25;;;;;17.91;62.71;101351.16;6339894;22;45494;-71
2023/10/11 05:07:07;;;;;;;;;13.50;12.00;;;;;17.85;62.40;101340.66;6340301;22;45427;-71
2023/10/11 05:09:38;;;;;;;;;14.25;13.00;;;;;17.84;63.01;101343.44;6340447;22;45247;-71
2023/10/11 05:12:09;;;;;;;;;11.75;9.75;;;;;17.80;62.61;101336.47;6339697;22;45426;-71
2023/10/11 05:14:40;;;;;;;;;12.50;11.00;;;;;17.83;62.48;101342.56;6340073;22;45282;-71
2023/10/11 05:19:46;;;;;;;;;12.00;11.50;;;;;17.75;62.31;101334.00;6339921;22;45287;-70
2023/10/11 05:22:23;;;;;;;;;10.00;8.50;;;;;17.75;62.65;101334.00;6338467;22;45588;-70
2023/10/11 05:30:16;;;;;;;;;12.50;10.50;;;;;17.66;62.24;101329.97;6333985;22;45271;-70
2023/10/11 05:32:50;;;;;;;;;10.25;9.50;;;;;17.68;63.06;101344.25;6339671;22;47342;-70
2023/10/11 05:51:29;;;;;;;;;11.50;10.25;;;;;17.63;63.08;101342.75;6339593;22;45328;-71
2023/10/11 05:53:55;;;;;;;;;13.25;10.75;;;;;17.63;63.02;101351.72;6339578;22;45559;-71
2023/10/11 05:56:21;;;;;;;;;14.75;12.50;;;;;17.62;62.94;101347.25;6311185;22;45360;-71
2023/10/11 05:58:51;;;;;;;;;13.25;12.25;;;;;17.58;63.03;101337.59;6339601;22;45263;-71
2023/10/11 06:01:19;;;;;;;;;15.50;10.25;;;;;17.58;62.82;101351.09;6339252;22;45462;-71
2023/10/11 06:03:48;;;;;;;;;11.50;11.50;;;;;17.58;63.35;101345.69;6338690;22;46526;-71
2023/10/11 06:06:23;;;;;;;;;12.75;12.25;;;;;17.55;63.65;101348.53;6310353;22;45274;-71
2023/10/11 06:08:50;;;;;;;;;16.75;13.75;;;;;17.56;63.45;101361.09;6338986;22;45377;-71
2023/10/11 06:11:16;;;;;;;;;13.50;11.75;;;;;17.52;63.36;101351.41;6338789;22;45193;-71
2023/10/11 06:13:43;;;;;;;;;16.25;14.00;;;;;17.54;63.51;101361.19;6336726;22;46675;-71
2023/10/11 06:16:13;;;;;;;;;18.75;13.00;;;;;17.49;63.60;101356.94;6338751;22;45549;-71
2023/10/11 06:18:39;;;;;;;;;14.25;12.50;;;;;17.49;63.28;101365.03;6336865;22;45286;-71
2023/10/11 06:21:18;;;;;;;;;14.75;14.00;;;;;17.52;63.60;101381.09;6306564;22;45665;-71
2023/10/11 06:23:44;;;;;;;;;17.50;14.25;;;;;17.43;63.45;101376.19;6308440;22;46863;-75
2023/10/11 06:29:16;;;;;;;;;14.75;12.75;;;;;17.44;63.91;101386.00;6271798;22;45319;-74
2023/10/11 06:31:43;;;;;;;;;16.50;13.25;;;;;17.41;63.97;101384.34;6298953;22;45522;-75
2023/10/11 06:34:15;;;;;;;;;15.25;14.00;;;;;17.43;64.15;101395.94;6340012;22;46744;-75
2023/10/11 06:36:50;;;;;;;;;14.75;13.25;;;;;17.43;64.03;101393.22;6340010;22;45392;-74
2023/10/11 06:42:12;;;;;;;;;15.50;14.50;;;;;17.43;64.15;101392.38;6339593;22;45633;-74
2023/10/11 06:44:42;;;;;;;;;15.00;13.50;;;;;17.41;63.89;101382.50;6339567;22;45400;-74
2023/10/11 06:47:11;;;;;;;;;15.25;14.00;;;;;17.26;64.17;101371.59;6340457;22;45365;-75
2023/10/11 06:49:40;;;;;;;;;15.75;14.00;;;;;17.30;64.45;101376.78;6311191;22;45383;-74
2023/10/11 06:52:07;;;;;;;;;17.75;15.50;;;;;17.16;64.11;101349.66;6311656;22;45355;-75
2023/10/11 06:54:32;;;;;;;;;15.50;14.50;;;;;17.19;64.41;101366.53;6339656;22;45512;-75
2023/10/11 06:56:58;;;;;;;;;15.75;13.00;;;;;17.22;64.29;101373.59;6340188;22;45650;-75
2023/10/11 06:59:27;;;;;;;;;18.50;16.75;;;;;17.21;64.22;101371.88;6340642;22;45375;-74
2023/10/11 07:01:53;;;;;;;;;18.25;16.25;;;;;17.23;64.78;101384.31;6339721;22;45205;-75
2023/10/11 07:04:18;;;;;;;;;16.00;13.00;;;;;17.19;64.47;101382.72;6338983;22;45223;-71
2023/10/11 07:06:46;;;;;;;;;19.00;17.25;;;;;17.19;64.56;101384.53;6338340;22;45289;-75
2023/10/11 07:09:20;;;;;;;;;16.25;13.75;;;;;17.21;64.77;101383.53;6340113;22;45461;-75
2023/10/11 07:12:18;;;;;;;;;16.25;15.00;;;;;17.23;65.09;101395.09;6313035;22;45350;-72
2023/10/11 07:14:41;;;;;;;;;17.00;14.50;;;;;17.22;65.15;101390.69;6331994;22;45722;-71
2023/10/11 07:17:08;;;;;;;;;21.25;18.75;;;;;17.24;65.02;101390.59;6337233;22;45773;-71
2023/10/11 07:19:36;;;;;;;;;16.25;15.25;;;;;17.26;65.09;101388.69;6338689;22;45386;-72
2023/10/11 07:22:03;;;;;;;;;16.25;14.00;;;;;17.29;65.27;101398.44;6338556;22;45821;-72
2023/10/11 07:27:12;;;;;;;;;15.00;15.00;;;;;17.27;65.62;101392.25;6337326;22;45299;-74
2023/10/11 07:29:45;;;;;;;;;16.00;14.25;;;;;17.34;65.73;101399.09;6337275;22;45677;-72
2023/10/11 07:32:11;;;;;;;;;21.25;18.00;;;;;17.31;65.43;101397.44;6337798;22;45417;-71
2023/10/11 07:34:38;;;;;;;;;21.75;16.50;;;;;17.33;65.49;101400.91;6336947;22;45803;-72
2023/10/11 07:37:03;;;;;;;;;17.75;16.25;;;;;17.32;66.12;101401.00;6337663;22;45327;-71
2023/10/11 07:39:33;;;;;;;;;20.25;17.25;;;;;17.28;65.87;101400.28;6338367;22;45264;-71
2023/10/11 07:44:30;;;;;;;;;15.50;13.50;;;;;17.31;65.66;101388.47;6338157;22;45310;-71
2023/10/11 07:46:57;;;;;;;;;14.00;13.00;;;;;17.36;64.98;101402.59;6337688;22;45311;-71
2023/10/11 07:49:25;;;;;;;;;16.00;13.25;;;;;17.33;65.83;101400.06;6336383;22;45703;-71
2023/10/11 07:52:01;;;;;;;;;15.00;13.75;;;;;17.41;65.72;101409.50;6337745;22;45431;-71
2023/10/11 07:54:26;;;;;;;;;17.25;16.50;;;;;17.46;66.09;101414.69;6337647;22;45364;-71
2023/10/11 07:56:57;;;;;;;;;18.50;16.50;;;;;17.41;65.23;101396.00;6336139;22;45278;-72
2023/10/11 07:59:26;;;;;;;;;14.00;12.75;;;;;17.53;64.70;101416.09;6337361;22;45332;-71
2023/10/11 08:02:08;;;;;;;;;14.25;12.00;;;;;17.57;64.62;101416.81;6338258;22;45472;-72
2023/10/11 08:04:35;;;;;;;;;13.50;12.00;;;;;17.54;64.73;101406.16;6336920;22;46341;-71
2023/10/11 08:07:03;;;;;;;;;12.00;10.25;;;;;17.67;64.21;101422.63;6337066;22;45625;-71
2023/10/11 08:09:46;;;;;;;;;13.00;11.25;;;;;17.70;64.54;101427.88;6337923;22;45325;-71
2023/10/11 08:12:18;;;;;;;;;13.75;12.75;;;;;17.70;64.25;101423.34;6338121;22;45274;-70
2023/10/11 08:14:46;;;;;;;;;14.75;13.00;;;;;17.60;64.40;101390.53;6336973;22;45663;-73
2023/10/11 08:17:16;;;;;;;;;11.00;10.50;;;;;17.82;64.03;101426.34;6337058;22;45394;-69
2023/10/11 08:19:45;;;;;;;;;11.75;11.00;;;;;17.84;63.45;101414.53;6309846;22;45305;-70
2023/10/11 08:22:14;;;;;;;;;11.00;10.00;;;;;17.84;63.46;101402.84;6336657;22;45503;-70
2023/10/11 08:24:46;;;;;;;;;9.75;9.00;;;;;17.90;62.75;101402.56;6336717;22;47180;-69
2023/10/11 08:27:12;;;;;;;;;13.25;11.75;;;;;17.99;62.80;101407.47;6337352;22;45453;-72
2023/10/11 08:29:38;;;;;;;;;7.00;7.00;;;;;18.04;63.30;101399.13;6337893;22;45328;-74
2023/10/11 08:32:12;;;;;;;;;11.50;10.75;;;;;17.99;63.06;101385.84;6337555;22;45707;-73
2023/10/11 08:34:37;;;;;;;;;11.75;11.00;;;;;18.03;63.31;101375.78;6309320;22;45774;-73
2023/10/11 08:37:06;;;;;;;;;13.50;12.50;;;;;18.07;63.03;101380.91;6336330;22;45298;-73
2023/10/11 08:39:47;;;;;;;;;11.50;9.50;;;;;18.20;62.85;101391.06;6336398;22;45353;-73
2023/10/11 08:42:16;;;;;;;;;11.75;8.75;;;;;18.26;62.45;101383.50;6328550;22;45374;-73
2023/10/11 08:44:46;;;;;;;;;11.50;10.25;;;;;18.31;62.33;101384.13;6336763;22;45966;-74
2023/10/11 08:47:19;;;;;;;;;10.00;9.50;;;;;18.38;62.04;101386.50;6338565;22;45429;-73
2023/10/11 08:49:49;;;;;;;;;9.00;8.00;;;;;18.44;61.43;101392.44;6337172;22;45389;-74
2023/10/11 08:52:21;;;;;;;;;9.50;8.25;;;;;18.36;61.43;101367.66;6336128;22;45584;-72
2023/10/11 08:54:48;;;;;;;;;7.75;5.75;;;;;18.56;61.20;101395.41;6334045;22;46213;-73
2023/10/11 08:57:13;;;;;;;;;8.25;7.00;;;;;18.57;60.21;101392.63;6336739;22;45248;-73
2023/10/11 08:59:56;;;;;;;;;10.00;7.50;;;;;18.62;60.20;101390.53;6338122;22;45729;-73
2023/10/11 09:02:23;;;;;;;;;11.50;10.00;;;;;18.72;59.64;101399.00;6337071;22;45630;-73
2023/10/11 09:07:51;;;;;;;;;8.75;7.00;;;;;18.85;59.68;101391.13;6337051;22;45338;-74
2023/10/11 09:10:22;;;;;;;;;10.00;7.75;;;;;18.92;59.67;101394.34;6336915;22;45346;-74
2023/10/11 09:12:49;;;;;;;;;10.50;6.75;;;;;18.98;59.13;101394.00;6335097;22;45310;-73
2023/10/11 09:15:14;;;;;;;;;8.75;8.25;;;;;19.02;59.44;101387.44;6335676;22;45581;-74
2023/10/11 09:17:40;;;;;;;;;10.75;8.00;;;;;19.12;58.75;101388.66;6336057;22;45326;-74
2023/10/11 09:20:23;;;;;;;;;10.00;6.75;;;;;19.18;58.52;101382.88;6338520;22;45587;-73
2023/10/11 09:22:52;;;;;;;;;7.00;6.50;;;;;19.32;58.29;101392.03;6336254;22;45303;-74
2023/10/11 09:25:33;;;;;;;;;10.25;8.25;;;;;19.39;57.97;101388.84;6335786;22;45352;-73
2023/10/11 09:27:59;;;;;;;;;9.00;7.50;;;;;19.45;58.42;101390.34;6337377;22;45263;-74
2023/10/11 09:30:27;;;;;;;;;5.00;5.00;;;;;19.53;57.92;101396.16;6338147;22;45360;-74
2023/10/11 09:32:59;;;;;;;;;6.00;5.00;;;;;19.57;57.99;101388.72;6334800;22;45579;-74
2023/10/11 09:35:27;;;;;;;;;9.25;6.50;;;;;19.73;57.86;101385.94;6336991;22;46222;-74
2023/10/11 09:37:56;;;;;;;;;4.75;4.75;;;;;19.80;57.56;101380.13;6337296;22;45527;-73
2023/10/11 09:40:31;;;;;;;;;6.25;5.25;;;;;19.92;57.75;101385.75;6337748;22;45524;-72
2023/10/11 09:43:00;;;;;;;;;9.50;6.25;;;;;20.01;57.93;101378.88;6332684;22;45476;-73
2023/10/11 09:45:29;;;;;;;;;9.25;9.25;;;;;20.09;57.58;101373.88;6335260;22;46270;-72
2023/10/11 09:47:55;;;;;;;;;6.00;6.00;;;;;20.18;57.98;101376.00;6338132;22;45548;-74
2023/10/11 09:50:26;;;;;;;;;7.00;5.00;;;;;20.28;57.33;101379.88;6337416;22;45582;-74
2023/10/11 09:52:53;;;;;;;;;8.25;7.00;;;;;20.34;56.80;101373.19;6331997;22;45652;-73
2023/10/11 09:55:31;;;;;;;;;10.50;6.00;;;;;20.45;56.94;101375.22;6335702;22;45208;-72
2023/10/11 09:58:11;;;;;;;;;7.75;7.75;;;;;20.52;56.48;101372.00;6337029;22;45455;-72
2023/10/11 10:00:43;;;;;;;;;7.50;6.00;;;;;20.67;56.51;101382.88;6338473;22;45415;-72
2023/10/11 10:03:13;;;;;;;;;7.50;6.25;;;;;20.73;56.71;101385.16;6336985;22;45517;-77
2023/10/11 10:06:06;;;;;;;;;6.00;6.00;;;;;20.80;57.01;101386.53;6337373;22;45494;-72
2023/10/11 10:08:32;;;;;;;;;5.75;3.75;;;;;20.86;56.48;101382.53;6339093;22;45256;-72
2023/10/11 10:10:57;;;;;;;;;6.75;6.50;;;;;20.90;56.16;101381.38;6338703;22;45358;-71
2023/10/11 10:13:26;;;;;;;;;7.00;7.00;;;;;20.99;56.32;101382.63;6336066;22;45567;-72
2023/10/11 10:15:53;;;;;;;;;8.75;6.50;;;;;21.05;56.19;101380.38;6338525;22;45237;-72
2023/10/11 10:18:20;;;;;;;;;6.25;6.00;;;;;21.03;55.71;101370.56;6338208;22;45525;-72
2023/10/11 10:20:47;;;;;;;;;2.00;2.00;;;;;21.19;56.21;101378.56;6338994;22;45499;-72
2023/10/11 10:23:20;;;;;;;;;4.75;4.25;;;;;21.27;55.50;101376.22;6334707;22;45434;-72
2023/10/11 10:25:46;;;;;;;;;7.25;5.50;;;;;21.33;56.12;101372.19;6337871;22;46789;-72
2023/10/11 10:28:36;;;;;;;;;7.00;5.00;;;;;21.42;55.15;101377.03;6338551;22;45418;-72
2023/10/11 10:31:19;;;;;;;;;8.25;6.25;;;;;21.47;55.41;101374.91;6338911;22;45280;-72
2023/10/11 10:33:52;;;;;;;;;4.50;4.50;;;;;21.52;55.22;101364.59;6337986;22;45361;-71
2023/10/11 10:36:18;;;;;;;;;7.75;6.00;;;;;21.70;55.72;101367.00;6336205;22;46102;-71
2023/10/11 10:38:58;;;;;;;;;5.00;4.00;;;;;21.86;54.47;101351.34;6338796;22;45251;-71
2023/10/11 10:41:27;;;;;;;;;6.50;5.50;;;;;21.95;54.71;101363.41;6338855;22;45494;-72
2023/10/11 10:44:11;;;;;;;;;5.25;5.25;;;;;22.01;54.57;101361.13;6336728;22;45391;-71
2023/10/11 10:46:57;;;;;;;;;7.00;6.00;;;;;22.00;53.73;101347.66;6336774;22;46252;-71
2023/10/11 10:49:41;;;;;;;;;6.00;5.75;;;;;22.07;53.75;101368.00;6339230;22;45549;-71
2023/10/11 10:52:16;;;;;;;;;8.75;5.25;;;;;22.10;54.07;101351.47;6336645;22;45337;-69
2023/10/11 10:55:02;;;;;;;;;5.25;4.00;;;;;22.12;54.58;101340.47;6338085;22;45858;-71
2023/10/11 10:57:31;;;;;;;;;5.00;4.00;;;;;22.19;54.11;101344.50;6337149;22;45979;-72
2023/10/11 10:59:58;;;;;;;;;8.00;4.50;;;;;22.25;54.07;101340.47;6338422;22;45274;-72
2023/10/11 11:02:24;;;;;;;;;5.75;5.75;;;;;22.28;54.52;101335.69;6337968;22;45424;-72
2023/10/11 11:04:49;;;;;;;;;7.75;6.50;;;;;22.34;54.07;101340.69;6338357;22;45420;-72
2023/10/11 11:07:24;;;;;;;;;7.25;6.00;;;;;22.41;53.79;101332.09;6336172;22;46347;-72
2023/10/11 11:09:57;;;;;;;;;5.25;4.25;;;;;22.45;53.61;101326.31;6335798;22;45595;-72
2023/10/11 11:12:29;;;;;;;;;6.00;5.00;;;;;22.47;53.32;101327.09;6336518;22;45670;-72
2023/10/11 11:14:58;;;;;;;;;7.00;5.00;;;;;22.48;53.72;101328.81;6337541;22;45608;-72
2023/10/11 11:17:26;;;;;;;;;4.50;4.50;;;;;22.50;52.78;101317.81;6337176;22;47475;-72
2023/10/11 11:20:29;;;;;;;;;7.00;4.75;;;;;22.61;53.10;101317.03;6338347;22;45633;-72
2023/10/11 11:22:55;;;;;;;;;7.50;6.00;;;;;22.66;52.05;101312.13;6312168;22;45338;-72
2023/10/11 11:28:18;;;;;;;;;2.75;2.75;;;;;22.78;52.17;101311.19;6338266;22;45349;-72
2023/10/11 11:31:06;;;;;;;;;8.00;5.75;;;;;22.79;51.98;101299.34;6331139;22;45311;-71
2023/10/11 11:33:35;;;;;;;;;8.00;6.00;;;;;22.79;52.40;101284.84;6336900;22;45443;-72
2023/10/11 11:36:10;;;;;;;;;6.25;6.25;;;;;22.85;51.93;101292.53;6338882;22;45349;-72
2023/10/11 11:38:37;;;;;;;;;7.00;5.00;;;;;22.92;51.75;101297.41;6336831;22;46318;-72
2023/10/11 11:41:15;;;;;;;;;11.00;7.50;;;;;22.93;51.83;101293.69;6338832;22;45372;-73
2023/10/11 11:43:40;;;;;;;;;7.50;6.00;;;;;23.01;52.49;101300.44;6338152;22;45311;-72
2023/10/11 11:46:05;;;;;;;;;8.25;6.50;;;;;23.02;52.09;101293.97;6338659;22;45519;-72
2023/10/11 11:48:41;;;;;;;;;9.25;8.00;;;;;23.07;51.68;101294.53;6338346;22;47426;-72
2023/10/11 11:51:13;;;;;;;;;6.75;5.75;;;;;23.16;52.35;101295.69;6336578;22;45491;-72
2023/10/11 11:53:43;;;;;;;;;6.75;5.75;;;;;23.22;51.73;101284.31;6335101;22;45268;-72
2023/10/11 11:56:10;;;;;;;;;4.75;3.00;;;;;23.24;51.73;101276.91;6337358;22;45496;-72
2023/10/11 11:58:36;;;;;;;;;6.25;6.25;;;;;23.26;51.56;101261.31;6331962;22;45697;-74
2023/10/11 12:01:15;;;;;;;;;12.00;8.50;;;;;23.30;52.30;101257.34;6334000;22;45365;-75
2023/10/11 12:03:42;;;;;;;;;8.00;7.00;;;;;23.30;51.54;101239.19;6333076;22;45472;-75
2023/10/11 12:06:21;;;;;;;;;6.75;6.50;;;;;23.39;51.77;101242.13;6333628;22;45457;-75
2023/10/11 12:08:57;;;;;;;;;8.50;6.75;;;;;23.35;51.54;101219.72;6332576;22;46487;-72
2023/10/11 12:11:30;;;;;;;;;6.50;6.50;;;;;23.49;51.46;101232.28;6305533;22;45554;-74
2023/10/11 12:14:00;;;;;;;;;9.75;7.75;;;;;23.52;50.50;101228.41;6334067;22;45413;-73
2023/10/11 12:16:26;;;;;;;;;6.25;6.25;;;;;23.49;50.95;101224.09;6333317;22;45393;-72
2023/10/11 12:18:59;;;;;;;;;7.75;7.50;;;;;23.53;50.67;101217.41;6334035;22;45937;-73
2023/10/11 12:21:25;;;;;;;;;6.75;6.00;;;;;23.60;50.18;101213.19;6335495;22;45421;-72
2023/10/11 12:23:50;;;;;;;;;6.75;5.50;;;;;23.71;50.39;101204.16;6336580;22;45353;-72